Time;durP1;ratioP1;P1;durP2;ratioP2;P2;SDS_P1;SDS_P2;PMS_P1;PMS_P2;Temp;Humidity;BMP_temperature;BMP_pressure;BME280_temperature;BME280_humidity;BME280_pressure;Samples;Min_cycle;Max_cycle;Signal;HPM_P1;HPM_P2
2023/07/15 00:01:45;;;;;;;15.00;6.63;;;24.40;99.90;;;;;;5090407;28;20410;-53
2023/07/15 00:04:49;;;;;;;17.30;7.20;;;24.40;99.90;;;;;;5090632;28;20402;-55
2023/07/15 00:07:53;;;;;;;26.30;7.45;;;24.40;99.90;;;;;;5090365;28;20042;-52
2023/07/15 00:10:57;;;;;;;18.98;6.85;;;24.40;99.90;;;;;;5089819;28;20051;-52
2023/07/15 00:14:14;;;;;;;24.02;6.55;;;24.40;99.90;;;;;;5090352;28;20055;-55
2023/07/15 00:17:18;;;;;;;17.30;7.18;;;24.30;99.90;;;;;;5090231;28;20035;-55
2023/07/15 00:20:22;;;;;;;20.80;6.85;;;24.30;99.90;;;;;;5090086;28;20039;-55
2023/07/15 00:23:27;;;;;;;11.32;5.97;;;24.30;99.90;;;;;;5090012;28;20039;-53
2023/07/15 00:26:34;;;;;;;16.13;6.80;;;24.20;99.90;;;;;;5090087;28;20038;-52
2023/07/15 00:29:40;;;;;;;15.98;6.50;;;24.10;99.90;;;;;;5089605;28;20521;-52
2023/07/15 00:32:49;;;;;;;15.70;6.30;;;24.20;99.90;;;;;;5089555;28;20043;-55
2023/07/15 00:35:53;;;;;;;11.55;6.30;;;24.20;99.90;;;;;;5089935;28;20031;-55
2023/07/15 00:38:58;;;;;;;16.38;6.45;;;24.20;99.90;;;;;;5089612;28;20040;-52
2023/07/15 00:42:11;;;;;;;13.98;6.82;;;24.20;99.90;;;;;;5089486;28;20509;-52
2023/07/15 00:45:15;;;;;;;15.23;5.93;;;24.20;99.90;;;;;;5088762;28;20043;-55
2023/07/15 00:48:24;;;;;;;18.35;6.50;;;24.20;99.90;;;;;;5089972;28;20046;-56
2023/07/15 00:51:33;;;;;;;17.00;5.63;;;24.20;99.90;;;;;;5089634;28;20375;-52
2023/07/15 00:54:41;;;;;;;14.88;6.00;;;24.20;99.90;;;;;;5089332;28;20051;-52
2023/07/15 00:57:45;;;;;;;16.75;6.43;;;24.20;99.90;;;;;;5090380;28;20603;-52
2023/07/15 01:00:50;;;;;;;16.80;6.90;;;23.90;99.90;;;;;;5088716;28;20043;-52
2023/07/15 01:03:57;;;;;;;15.40;7.60;;;23.80;99.90;;;;;;5089993;28;20051;-52
2023/07/15 01:07:02;;;;;;;16.50;7.50;;;23.70;99.90;;;;;;5090118;28;20501;-52
2023/07/15 01:10:07;;;;;;;15.18;7.63;;;23.60;99.90;;;;;;5089938;28;20047;-57
2023/07/15 01:13:11;;;;;;;20.40;7.25;;;23.50;99.90;;;;;;5089894;28;20398;-52
2023/07/15 01:16:16;;;;;;;18.20;7.28;;;23.50;99.90;;;;;;5090081;28;20043;-53
2023/07/15 01:19:20;;;;;;;17.73;7.47;;;23.50;99.90;;;;;;5090195;28;20067;-54
2023/07/15 01:22:26;;;;;;;22.83;7.60;;;23.50;99.90;;;;;;5089453;28;20035;-53
2023/07/15 01:25:31;;;;;;;12.80;7.72;;;23.50;99.90;;;;;;5090082;28;20047;-52
2023/07/15 01:28:36;;;;;;;17.13;7.40;;;23.50;99.90;;;;;;5090176;28;20051;-53
2023/07/15 01:31:42;;;;;;;17.13;7.70;;;23.50;99.90;;;;;;5088848;28;20043;-53
2023/07/15 01:34:47;;;;;;;13.88;7.65;;;23.50;99.90;;;;;;5089618;28;20071;-53
2023/07/15 01:37:52;;;;;;;14.15;7.07;;;23.50;99.90;;;;;;5089332;28;20043;-52
2023/07/15 01:40:56;;;;;;;15.85;7.60;;;23.60;99.90;;;;;;5088059;28;20039;-55
2023/07/15 01:44:04;;;;;;;16.65;7.75;;;23.50;99.90;;;;;;5088577;28;20047;-52
2023/07/15 01:47:08;;;;;;;20.45;7.45;;;23.50;99.90;;;;;;5089498;28;20035;-52
2023/07/15 01:50:12;;;;;;;16.00;7.43;;;23.50;99.90;;;;;;5088511;28;20394;-54
2023/07/15 01:53:16;;;;;;;16.35;7.78;;;23.40;99.90;;;;;;5089086;28;20047;-53
2023/07/15 01:56:21;;;;;;;23.88;8.98;;;23.50;99.90;;;;;;5088806;28;20038;-53
2023/07/15 01:59:25;;;;;;;17.25;8.43;;;23.40;99.90;;;;;;5092074;28;20071;-53
2023/07/15 02:02:29;;;;;;;15.85;7.53;;;23.40;99.90;;;;;;5091400;28;20046;-52
2023/07/15 02:05:33;;;;;;;17.60;7.13;;;23.40;99.90;;;;;;5092164;28;20047;-53
2023/07/15 02:08:37;;;;;;;14.18;7.75;;;23.40;99.90;;;;;;5092729;28;20051;-56
2023/07/15 02:11:41;;;;;;;13.88;7.32;;;23.40;99.90;;;;;;5091374;28;20071;-54
2023/07/15 02:14:46;;;;;;;22.25;8.25;;;23.40;99.90;;;;;;5092583;28;20055;-52
2023/07/15 02:17:50;;;;;;;15.93;7.90;;;23.30;99.90;;;;;;5091549;28;20047;-52
2023/07/15 02:20:54;;;;;;;17.98;8.13;;;23.20;99.90;;;;;;5092089;28;20035;-56
2023/07/15 02:23:59;;;;;;;17.77;8.90;;;23.10;99.90;;;;;;5091465;28;20426;-54
2023/07/15 02:27:04;;;;;;;14.82;8.38;;;23.00;99.90;;;;;;5092468;28;20039;-52
2023/07/15 02:30:09;;;;;;;18.20;8.02;;;22.90;99.90;;;;;;5092546;28;20047;-52
2023/07/15 02:33:12;;;;;;;20.63;9.13;;;22.90;99.90;;;;;;5091648;28;20055;-53
2023/07/15 02:36:18;;;;;;;20.08;9.15;;;22.90;99.90;;;;;;5092197;28;20051;-55
2023/07/15 02:39:22;;;;;;;19.77;7.82;;;22.90;99.90;;;;;;5090925;28;20051;-57
2023/07/15 02:42:26;;;;;;;14.80;9.30;;;22.90;99.90;;;;;;5090625;28;20431;-55
2023/07/15 02:45:30;;;;;;;20.42;8.65;;;22.80;99.90;;;;;;5091357;28;20063;-54
2023/07/15 02:48:34;;;;;;;16.55;8.80;;;22.80;99.90;;;;;;5091461;28;20422;-55
2023/07/15 02:51:38;;;;;;;19.27;8.25;;;22.80;99.90;;;;;;5091647;28;20521;-55
2023/07/15 02:54:43;;;;;;;24.65;10.77;;;22.80;99.90;;;;;;5091714;28;20043;-57
2023/07/15 02:57:47;;;;;;;26.45;9.82;;;22.90;99.90;;;;;;5091659;28;20047;-55
2023/07/15 03:00:52;;;;;;;20.55;9.95;;;22.90;99.90;;;;;;5090660;28;20415;-55
2023/07/15 03:03:56;;;;;;;16.40;9.27;;;22.90;99.90;;;;;;5091200;28;20035;-56
2023/07/15 03:07:00;;;;;;;18.33;10.23;;;22.90;99.90;;;;;;5091631;28;20047;-56
2023/07/15 03:10:06;;;;;;;22.52;10.73;;;22.80;99.90;;;;;;5091562;28;20051;-55
2023/07/15 03:13:10;;;;;;;23.90;10.98;;;22.80;99.90;;;;;;5090838;28;20443;-55
2023/07/15 03:16:14;;;;;;;20.75;10.60;;;22.80;99.90;;;;;;5090660;28;20043;-56
2023/07/15 03:19:18;;;;;;;22.27;12.27;;;22.70;99.90;;;;;;5090324;28;20043;-53
2023/07/15 03:22:22;;;;;;;22.70;13.07;;;22.70;99.90;;;;;;5089815;28;20047;-57
2023/07/15 03:25:26;;;;;;;30.83;12.52;;;22.60;99.90;;;;;;5091396;28;20046;-52
2023/07/15 03:28:30;;;;;;;23.42;13.15;;;22.50;99.90;;;;;;5091336;28;20071;-53
2023/07/15 03:31:34;;;;;;;20.63;12.20;;;22.50;99.90;;;;;;5090834;28;20051;-56
2023/07/15 03:34:38;;;;;;;30.27;13.10;;;22.40;99.90;;;;;;5091069;28;20068;-53
2023/07/15 03:37:46;;;;;;;30.85;14.57;;;22.40;99.90;;;;;;5090040;28;20747;-56
2023/07/15 03:40:53;;;;;;;23.27;13.43;;;22.30;99.90;;;;;;5090035;28;20039;-55
2023/07/15 03:43:57;;;;;;;27.30;14.27;;;22.20;99.90;;;;;;5089511;28;20039;-52
2023/07/15 03:47:01;;;;;;;21.77;14.35;;;22.20;99.90;;;;;;5090622;28;20047;-55
2023/07/15 03:50:07;;;;;;;26.33;15.20;;;22.10;99.90;;;;;;5090778;28;20045;-55
2023/07/15 03:53:12;;;;;;;26.45;15.10;;;22.10;99.90;;;;;;5090211;28;20047;-52
2023/07/15 03:56:16;;;;;;;31.40;14.65;;;22.10;99.90;;;;;;5090425;28;20062;-52
2023/07/15 03:59:20;;;;;;;26.48;14.80;;;22.00;99.90;;;;;;5090533;28;20051;-56
2023/07/15 04:02:24;;;;;;;26.63;14.65;;;22.10;99.90;;;;;;5090487;28;20047;-53
2023/07/15 04:05:28;;;;;;;26.17;14.68;;;22.10;99.90;;;;;;5091052;28;20399;-54
2023/07/15 04:08:32;;;;;;;25.63;14.38;;;22.10;99.90;;;;;;5090737;28;20406;-53
2023/07/15 04:11:36;;;;;;;28.13;15.73;;;22.10;99.90;;;;;;5090294;28;20406;-53
2023/07/15 04:14:40;;;;;;;33.22;15.90;;;22.10;99.90;;;;;;5090068;28;20505;-53
2023/07/15 04:17:44;;;;;;;22.42;14.60;;;22.10;99.90;;;;;;5090297;28;20039;-52
2023/07/15 04:20:48;;;;;;;21.92;14.23;;;22.20;99.90;;;;;;5089842;28;20055;-52
2023/07/15 04:23:52;;;;;;;27.13;15.68;;;22.20;99.90;;;;;;5090011;28;20047;-55
2023/07/15 04:26:55;;;;;;;23.48;13.63;;;22.20;99.90;;;;;;5090168;28;20039;-53
2023/07/15 04:30:00;;;;;;;25.45;13.65;;;22.30;99.90;;;;;;5089422;28;20051;-56
2023/07/15 04:33:04;;;;;;;31.23;12.52;;;22.30;99.90;;;;;;5089076;28;20055;-52
2023/07/15 04:36:08;;;;;;;22.33;14.35;;;22.40;99.90;;;;;;5090124;28;20043;-54
2023/07/15 04:39:11;;;;;;;22.75;13.70;;;22.60;99.90;;;;;;5089821;28;20039;-56
2023/07/15 04:42:15;;;;;;;26.88;13.07;;;23.90;99.90;;;;;;5089689;28;20102;-54
2023/07/15 04:45:19;;;;;;;25.42;11.77;;;26.00;99.90;;;;;;5089961;28;20293;-52
2023/07/15 04:48:23;;;;;;;14.13;10.93;;;27.70;99.90;;;;;;5089944;28;20415;-53
2023/07/15 04:51:27;;;;;;;18.10;10.55;;;29.10;99.90;;;;;;5089574;28;20047;-52
2023/07/15 04:54:31;;;;;;;16.30;9.82;;;30.10;99.90;;;;;;5089361;28;20063;-53
2023/07/15 04:57:36;;;;;;;20.58;10.50;;;30.90;99.90;;;;;;5089807;28;20055;-55
2023/07/15 05:00:39;;;;;;;21.05;11.27;;;31.50;99.90;;;;;;5089926;28;20047;-53
2023/07/15 05:03:43;;;;;;;25.05;10.30;;;31.60;99.90;;;;;;5089537;28;20039;-53
2023/07/15 05:06:47;;;;;;;17.58;10.23;;;31.60;99.90;;;;;;5089828;28;20047;-56
2023/07/15 05:09:51;;;;;;;23.20;10.32;;;31.30;99.90;;;;;;5089947;28;20058;-52
2023/07/15 05:12:55;;;;;;;23.30;9.07;;;31.10;99.90;;;;;;5089477;28;20039;-52
2023/07/15 05:15:59;;;;;;;19.25;9.77;;;31.50;99.90;;;;;;5089716;28;20525;-52
2023/07/15 05:19:04;;;;;;;28.13;15.82;;;31.20;99.90;;;;;;5089597;28;20039;-52
2023/07/15 05:22:07;;;;;;;24.00;12.18;;;31.40;99.90;;;;;;5089688;28;20039;-52
2023/07/15 05:25:12;;;;;;;26.92;11.52;;;31.60;99.90;;;;;;5089499;28;20505;-52
2023/07/15 05:28:16;;;;;;;21.77;12.02;;;31.90;99.90;;;;;;5089811;28;20399;-52
2023/07/15 05:31:20;;;;;;;20.58;11.48;;;32.00;99.90;;;;;;5089481;28;20521;-52
2023/07/15 05:34:24;;;;;;;22.77;9.60;;;32.70;99.90;;;;;;5093205;28;20513;-52
2023/07/15 05:37:28;;;;;;;17.88;9.35;;;33.40;99.90;;;;;;5092401;28;20054;-52
2023/07/15 05:40:32;;;;;;;22.17;8.48;;;33.60;99.90;;;;;;5093222;28;20039;-52
2023/07/15 05:43:36;;;;;;;14.45;7.93;;;34.30;99.90;;;;;;5093107;28;20458;-51
2023/07/15 05:46:40;;;;;;;17.98;7.78;;;34.80;99.90;;;;;;5093089;28;20051;-52
2023/07/15 05:49:44;;;;;;;21.52;8.05;;;34.80;99.90;;;;;;5093567;28;20051;-58
2023/07/15 05:52:48;;;;;;;12.80;6.25;;;34.70;99.90;;;;;;5092909;28;20059;-56
2023/07/15 05:55:52;;;;;;;16.85;8.98;;;34.70;99.90;;;;;;5092581;28;20047;-54
2023/07/15 05:58:55;;;;;;;18.67;8.52;;;33.30;99.90;;;;;;5092898;28;20051;-54
2023/07/15 06:01:59;;;;;;;15.93;7.95;;;33.00;99.90;;;;;;5092414;28;20051;-55
2023/07/15 06:05:04;;;;;;;18.98;8.15;;;33.10;99.90;;;;;;5092565;28;20072;-55
2023/07/15 06:08:09;;;;;;;17.73;8.15;;;31.90;99.90;;;;;;5092855;28;20406;-54
2023/07/15 06:11:15;;;;;;;19.02;7.95;;;31.10;99.90;;;;;;5092727;28;20071;-56
2023/07/15 06:14:19;;;;;;;13.07;6.72;;;32.10;99.90;;;;;;5092222;28;20055;-54
2023/07/15 06:17:23;;;;;;;16.83;8.00;;;31.90;99.90;;;;;;5092650;28;20039;-53
2023/07/15 06:20:27;;;;;;;18.65;7.15;;;32.90;99.90;;;;;;5092879;28;20505;-56
2023/07/15 06:23:31;;;;;;;13.70;6.50;;;32.10;99.90;;;;;;5092637;28;20055;-56
2023/07/15 06:26:35;;;;;;;16.10;7.63;;;32.50;99.90;;;;;;5092504;28;20043;-53
2023/07/15 06:29:39;;;;;;;17.02;7.05;;;32.60;99.90;;;;;;5092778;28;20047;-54
2023/07/15 06:32:43;;;;;;;16.45;7.43;;;32.90;99.90;;;;;;5092332;28;20422;-55
2023/07/15 06:35:47;;;;;;;14.25;7.05;;;33.30;99.90;;;;;;5092343;28;20047;-57
2023/07/15 06:38:51;;;;;;;16.63;6.25;;;34.10;99.90;;;;;;5092516;28;20410;-53
2023/07/15 06:41:55;;;;;;;14.60;6.80;;;34.60;99.90;;;;;;5092047;28;20413;-55
2023/07/15 06:44:58;;;;;;;20.50;6.70;;;34.10;99.90;;;;;;5091858;28;20059;-53
2023/07/15 06:48:03;;;;;;;13.23;6.32;;;34.60;99.90;;;;;;5092449;28;20305;-56
2023/07/15 06:51:07;;;;;;;16.67;6.55;;;33.70;99.90;;;;;;5092244;28;20047;-56
2023/07/15 06:54:11;;;;;;;20.80;6.68;;;34.50;99.90;;;;;;5092131;28;20035;-54
2023/07/15 06:57:15;;;;;;;14.93;6.22;;;34.70;99.90;;;;;;5092202;28;20047;-52
2023/07/15 07:00:19;;;;;;;21.30;6.97;;;34.10;99.90;;;;;;5092163;28;20039;-53
2023/07/15 07:03:23;;;;;;;10.55;5.20;;;33.90;99.90;;;;;;5091776;28;20046;-56
2023/07/15 07:06:28;;;;;;;23.08;7.93;;;35.00;99.90;;;;;;5091649;28;20406;-55
2023/07/15 07:09:32;;;;;;;18.88;6.93;;;35.20;99.90;;;;;;5091860;28;20406;-53
2023/07/15 07:12:37;;;;;;;15.55;5.93;;;33.50;99.90;;;;;;5091598;28;20509;-53
2023/07/15 07:15:41;;;;;;;11.65;5.78;;;34.90;99.90;;;;;;5090618;28;20055;-54
2023/07/15 07:18:45;;;;;;;11.70;5.43;;;36.10;99.90;;;;;;5091598;28;20051;-52
2023/07/15 07:21:49;;;;;;;15.00;6.00;;;35.90;99.90;;;;;;5091199;28;20039;-53
2023/07/15 07:24:53;;;;;;;9.88;5.97;;;36.60;99.00;;;;;;5091630;28;20063;-56
2023/07/15 07:27:57;;;;;;;13.57;5.30;;;35.20;99.30;;;;;;5091517;28;20055;-55
2023/07/15 07:31:01;;;;;;;13.77;5.70;;;35.70;99.50;;;;;;5091445;28;20039;-55
2023/07/15 07:34:05;;;;;;;9.70;4.65;;;36.00;99.50;;;;;;5091393;28;20505;-53
2023/07/15 07:37:09;;;;;;;9.95;5.32;;;36.80;98.90;;;;;;5090548;28;20410;-52
2023/07/15 07:40:13;;;;;;;11.93;4.78;;;37.30;98.50;;;;;;5091121;28;20047;-56
2023/07/15 07:43:17;;;;;;;12.30;4.97;;;38.30;97.60;;;;;;5090950;28;20415;-53
2023/07/15 07:46:21;;;;;;;13.50;6.32;;;35.90;97.70;;;;;;5090798;28;20087;-53
2023/07/15 07:49:25;;;;;;;10.02;5.25;;;35.40;98.90;;;;;;5091378;28;20043;-54
2023/07/15 07:52:29;;;;;;;13.70;5.88;;;37.00;98.00;;;;;;5090979;28;20066;-54
2023/07/15 07:55:33;;;;;;;11.00;5.45;;;36.20;97.90;;;;;;5090277;28;20055;-58
2023/07/15 07:58:39;;;;;;;13.40;5.30;;;37.60;97.40;;;;;;5091035;28;20043;-54
2023/07/15 08:01:43;;;;;;;11.00;4.68;;;38.80;96.60;;;;;;5090450;28;20043;-55
2023/07/15 08:04:50;;;;;;;19.45;5.03;;;39.60;96.10;;;;;;5090889;28;20043;-55
2023/07/15 08:07:54;;;;;;;13.48;5.10;;;38.80;95.50;;;;;;5089950;28;20505;-52
2023/07/15 08:10:58;;;;;;;13.25;4.78;;;39.20;95.50;;;;;;5090483;28;20386;-56
2023/07/15 08:14:01;;;;;;;10.63;4.47;;;39.50;95.60;;;;;;5090456;28;20406;-53
2023/07/15 08:17:05;;;;;;;12.88;5.07;;;40.50;93.50;;;;;;5090179;28;20039;-56
2023/07/15 08:20:10;;;;;;;12.07;4.88;;;40.20;93.70;;;;;;5090110;28;20047;-54
2023/07/15 08:23:14;;;;;;;9.95;4.35;;;39.80;93.60;;;;;;5089898;28;20047;-55
2023/07/15 08:26:17;;;;;;;11.20;4.80;;;40.50;93.70;;;;;;5089943;28;20039;-52
2023/07/15 08:29:21;;;;;;;11.40;4.55;;;42.00;92.90;;;;;;5090123;28;20506;-53
2023/07/15 08:32:25;;;;;;;12.40;4.63;;;43.10;92.00;;;;;;5089807;28;20047;-54
2023/07/15 08:35:30;;;;;;;10.02;4.15;;;40.80;92.00;;;;;;5089837;28;20055;-55
2023/07/15 08:38:34;;;;;;;13.73;4.30;;;39.90;92.70;;;;;;5089996;28;20064;-57
2023/07/15 08:41:40;;;;;;;12.48;5.32;;;41.60;92.30;;;;;;5089917;28;20233;-52
2023/07/15 08:44:44;;;;;;;11.93;4.78;;;40.20;92.10;;;;;;5089956;28;20035;-53
2023/07/15 08:47:48;;;;;;;11.40;4.40;;;40.20;92.40;;;;;;5089581;28;20047;-53
2023/07/15 08:50:56;;;;;;;7.90;3.83;;;41.00;92.40;;;;;;5090029;28;20604;-53
2023/07/15 08:54:05;;;;;;;12.60;5.13;;;42.90;90.90;;;;;;5089759;28;20039;-52
2023/07/15 08:57:10;;;;;;;;;;;40.80;91.20;;;;;;5090341;28;20043;-53
2023/07/15 09:00:15;;;;;;;10.52;4.55;;;38.90;91.70;;;;;;5089686;28;20413;-52
2023/07/15 09:03:23;;;;;;;14.23;4.85;;;39.70;93.10;;;;;;5090034;28;20051;-56
2023/07/15 09:06:28;;;;;;;11.50;4.53;;;41.00;92.50;;;;;;5091816;28;20067;-55
2023/07/15 09:09:33;;;;;;;7.85;3.88;;;42.20;91.30;;;;;;5093996;28;20062;-57
2023/07/15 09:12:42;;;;;;;14.80;4.55;;;43.90;90.40;;;;;;5093587;28;20043;-56
2023/07/15 09:15:47;;;;;;;13.40;4.68;;;42.70;90.60;;;;;;5094036;28;20406;-56
2023/07/15 09:18:51;;;;;;;11.57;4.25;;;40.70;90.50;;;;;;5093515;28;20043;-57
2023/07/15 09:22:06;;;;;;;14.23;4.25;;;43.10;90.70;;;;;;5093281;28;20043;-54
2023/07/15 09:25:11;;;;;;;13.07;4.63;;;43.90;89.10;;;;;;5093777;28;20047;-52
2023/07/15 09:28:15;;;;;;;13.68;4.50;;;44.80;87.70;;;;;;5093378;28;20055;-55
2023/07/15 09:31:23;;;;;;;9.63;3.80;;;45.50;86.10;;;;;;5093160;28;20402;-56
2023/07/15 09:34:28;;;;;;;9.98;4.25;;;44.70;87.50;;;;;;5093185;28;20055;-57
2023/07/15 09:37:32;;;;;;;11.23;4.22;;;45.90;85.20;;;;;;5093271;28;20039;-54
2023/07/15 09:40:43;;;;;;;8.38;3.50;;;45.20;86.00;;;;;;5093250;28;20047;-52
2023/07/15 09:43:53;;;;;;;8.95;4.13;;;44.30;86.70;;;;;;5093200;28;20399;-53
2023/07/15 09:46:57;;;;;;;8.50;3.97;;;45.70;84.00;;;;;;5092647;28;20039;-54
2023/07/15 09:50:00;;;;;;;10.48;3.80;;;46.00;83.30;;;;;;5093150;28;20355;-53
2023/07/15 09:53:05;;;;;;;12.48;3.85;;;47.20;82.80;;;;;;5092956;28;20419;-56
2023/07/15 09:56:10;;;;;;;8.63;4.10;;;48.80;81.50;;;;;;5092931;28;20046;-55
2023/07/15 09:59:22;;;;;;;7.03;3.88;;;48.20;80.70;;;;;;5092600;28;20039;-53
2023/07/15 10:02:45;;;;;;;7.45;3.78;;;48.30;80.40;;;;;;5091730;28;20122;-53
2023/07/15 10:05:50;;;;;;;12.55;3.67;;;47.90;79.30;;;;;;5093048;28;20035;-55
2023/07/15 10:08:54;;;;;;;11.10;4.07;;;47.40;79.80;;;;;;5092400;28;20047;-52
2023/07/15 10:12:00;;;;;;;8.77;4.50;;;47.10;79.50;;;;;;5092648;28;20054;-52
2023/07/15 10:15:05;;;;;;;8.05;4.07;;;47.10;79.10;;;;;;5092616;28;20047;-53
2023/07/15 10:18:12;;;;;;;11.15;3.67;;;47.30;78.60;;;;;;5091669;28;20035;-53
2023/07/15 10:21:16;;;;;;;9.95;3.80;;;48.20;78.30;;;;;;5092768;28;20067;-53
2023/07/15 10:24:20;;;;;;;13.63;4.43;;;47.50;76.80;;;;;;5092578;28;20047;-56
2023/07/15 10:27:28;;;;;;;12.10;4.20;;;47.20;77.50;;;;;;5092193;28;20043;-50
2023/07/15 10:30:32;;;;;;;18.08;4.63;;;46.70;77.30;;;;;;5092831;28;20054;-56
2023/07/15 10:33:50;;;;;;;9.38;3.35;;;47.10;78.30;;;;;;5092325;28;20134;-55
2023/07/15 10:37:06;;;;;;;12.25;3.95;;;45.90;81.20;;;;;;5092446;28;20039;-55
2023/07/15 10:40:10;;;;;;;8.85;3.90;;;46.80;78.50;;;;;;5092254;28;20046;-56
2023/07/15 10:43:36;;;;;;;8.00;3.45;;;46.50;78.30;;;;;;5092144;28;20043;-57
2023/07/15 10:46:42;;;;;;;9.05;3.60;;;43.90;79.20;;;;;;5091523;28;20039;-56
2023/07/15 10:49:48;;;;;;;10.52;3.67;;;46.00;78.30;;;;;;5091729;28;20050;-55
2023/07/15 10:52:52;;;;;;;7.18;3.42;;;48.00;76.00;;;;;;5091217;28;20043;-54
2023/07/15 10:56:05;;;;;;;8.65;3.45;;;47.70;74.70;;;;;;5092107;28;20525;-57
2023/07/15 10:59:09;;;;;;;6.30;3.65;;;46.40;74.30;;;;;;5091344;28;20051;-55
2023/07/15 11:02:13;;;;;;;10.90;3.50;;;45.80;75.00;;;;;;5091476;28;20043;-53
2023/07/15 11:05:19;;;;;;;10.65;3.45;;;47.30;74.80;;;;;;5091802;28;20047;-53
2023/07/15 11:08:23;;;;;;;10.02;3.75;;;47.90;73.30;;;;;;5091478;28;20106;-55
2023/07/15 11:11:27;;;;;;;7.18;3.42;;;47.30;73.90;;;;;;5091352;28;20042;-54
2023/07/15 11:14:31;;;;;;;8.15;3.42;;;47.10;74.10;;;;;;5091507;28;20054;-53
2023/07/15 11:17:40;;;;;;;9.95;3.83;;;46.50;74.80;;;;;;5091649;28;20055;-53
2023/07/15 11:20:49;;;;;;;8.70;3.42;;;47.40;74.10;;;;;;5091186;28;20051;-53
2023/07/15 11:23:53;;;;;;;7.13;3.78;;;47.90;72.40;;;;;;5091019;28;20043;-51
2023/07/15 11:27:00;;;;;;;9.73;4.05;;;48.70;72.00;;;;;;5091312;28;20050;-54
2023/07/15 11:30:04;;;;;;;9.35;3.35;;;47.50;71.10;;;;;;5090936;28;20410;-50
2023/07/15 11:33:10;;;;;;;11.25;3.28;;;46.70;73.10;;;;;;5090784;28;20430;-53
2023/07/15 11:36:13;;;;;;;13.75;4.13;;;44.60;74.00;;;;;;5091259;28;20050;-52
2023/07/15 11:39:18;;;;;;;5.55;3.47;;;42.50;77.30;;;;;;5090863;28;20047;-53
2023/07/15 11:42:21;;;;;;;12.20;4.88;;;42.70;78.80;;;;;;5091055;28;20051;-57
2023/07/15 11:45:26;;;;;;;9.25;4.13;;;42.30;77.50;;;;;;5090235;28;20043;-52
2023/07/15 11:48:33;;;;;;;10.18;4.13;;;43.20;76.50;;;;;;5090713;28;20048;-52
2023/07/15 11:51:41;;;;;;;10.35;3.78;;;44.30;75.70;;;;;;5090818;28;20043;-53
2023/07/15 11:54:46;;;;;;;13.35;3.67;;;45.30;73.80;;;;;;5090585;28;20043;-53
2023/07/15 11:57:51;;;;;;;8.57;3.47;;;46.10;73.20;;;;;;5090701;28;20051;-57
2023/07/15 12:00:57;;;;;;;7.88;4.30;;;46.00;72.40;;;;;;5090336;28;20039;-53
2023/07/15 12:04:01;;;;;;;7.72;3.70;;;44.70;74.60;;;;;;5090778;28;20043;-52
2023/07/15 12:07:05;;;;;;;12.65;4.03;;;44.40;74.60;;;;;;5090494;28;20411;-52
2023/07/15 12:10:10;;;;;;;9.48;3.78;;;44.00;74.80;;;;;;5090433;28;20055;-52
2023/07/15 12:13:14;;;;;;;9.13;4.22;;;41.00;77.70;;;;;;5089954;28;20063;-53
2023/07/15 12:16:20;;;;;;;8.82;4.13;;;40.90;77.00;;;;;;5090044;28;20051;-54
2023/07/15 12:19:24;;;;;;;10.88;4.05;;;39.90;78.60;;;;;;5090048;28;20047;-53
2023/07/15 12:22:28;;;;;;;8.68;4.10;;;40.90;78.40;;;;;;5089801;28;20518;-52
2023/07/15 12:25:32;;;;;;;11.77;4.40;;;41.70;78.00;;;;;;5090400;28;20043;-52
2023/07/15 12:28:36;;;;;;;13.18;5.22;;;42.50;77.50;;;;;;5089861;28;20035;-55
2023/07/15 12:31:40;;;;;;;8.88;4.00;;;42.70;76.80;;;;;;5089751;28;20043;-56
2023/07/15 12:34:44;;;;;;;14.35;4.22;;;41.60;77.50;;;;;;5090189;28;20047;-56
2023/07/15 12:37:48;;;;;;;12.77;4.30;;;41.60;79.60;;;;;;5090280;28;20051;-52
2023/07/15 12:40:52;;;;;;;11.15;4.63;;;41.10;78.80;;;;;;5088924;28;20047;-52
2023/07/15 12:43:57;;;;;;;12.65;4.25;;;41.00;81.20;;;;;;5090059;28;20051;-52
2023/07/15 12:47:01;;;;;;;10.75;4.22;;;40.80;77.60;;;;;;5089974;28;20043;-56
2023/07/15 12:50:05;;;;;;;10.73;4.53;;;40.60;80.00;;;;;;5089613;28;20039;-53
2023/07/15 12:53:09;;;;;;;8.52;4.50;;;40.40;79.60;;;;;;5089778;28;20055;-52
2023/07/15 12:56:13;;;;;;;12.43;4.25;;;40.10;79.00;;;;;;5089896;28;20039;-54
2023/07/15 12:59:18;;;;;;;9.48;4.35;;;39.60;79.10;;;;;;5089476;28;20067;-55
2023/07/15 13:02:22;;;;;;;12.90;4.35;;;39.70;78.40;;;;;;5089724;28;20055;-51
2023/07/15 13:05:25;;;;;;;7.40;3.80;;;39.40;79.60;;;;;;5089996;28;20398;-54
2023/07/15 13:08:29;;;;;;;7.80;4.13;;;38.90;81.10;;;;;;5089942;28;20047;-52
2023/07/15 13:11:33;;;;;;;11.35;4.88;;;39.00;81.00;;;;;;5089417;28;20043;-52
2023/07/15 13:14:37;;;;;;;10.48;4.10;;;39.80;79.50;;;;;;5089604;28;20044;-53
2023/07/15 13:17:41;;;;;;;12.93;4.25;;;40.50;79.00;;;;;;5089548;28;20521;-53
2023/07/15 13:20:45;;;;;;;9.10;3.70;;;40.50;78.60;;;;;;5089001;28;20043;-52
2023/07/15 13:23:49;;;;;;;7.55;3.80;;;40.30;77.40;;;;;;5089823;28;20403;-52
2023/07/15 13:26:53;;;;;;;14.20;4.35;;;40.10;77.30;;;;;;5089447;28;20039;-55
2023/07/15 13:29:57;;;;;;;9.80;3.72;;;40.20;77.70;;;;;;5089418;28;20497;-54
2023/07/15 13:33:01;;;;;;;8.93;3.92;;;40.40;77.50;;;;;;5089318;28;20059;-54
2023/07/15 13:36:06;;;;;;;9.50;3.50;;;40.20;76.70;;;;;;5089330;28;20047;-55
2023/07/15 13:39:36;;;;;;;10.77;3.90;;;40.10;77.00;;;;;;5089426;28;20047;-52
2023/07/15 13:42:40;;;;;;;8.20;3.60;;;39.20;77.10;;;;;;5089163;28;20102;-52
2023/07/15 13:45:43;;;;;;;7.15;3.53;;;38.80;80.40;;;;;;5089615;28;20039;-56
2023/07/15 13:48:47;;;;;;;9.52;4.38;;;38.30;78.50;;;;;;5089833;28;20055;-56
2023/07/15 13:51:51;;;;;;;10.10;4.18;;;37.70;78.70;;;;;;5088887;28;20122;-52
2023/07/15 13:54:55;;;;;;;10.45;4.28;;;37.40;79.00;;;;;;5093380;28;20506;-52
2023/07/15 13:57:59;;;;;;;9.77;3.85;;;37.90;77.20;;;;;;5093470;28;20055;-53
2023/07/15 14:01:03;;;;;;;8.82;3.67;;;38.60;77.30;;;;;;5092626;28;20047;-52
2023/07/15 14:04:08;;;;;;;9.68;4.00;;;39.30;75.30;;;;;;5092905;28;20047;-57
2023/07/15 14:07:13;;;;;;;6.30;3.50;;;39.20;76.30;;;;;;5093268;28;20411;-57
2023/07/15 14:10:17;;;;;;;8.38;3.50;;;39.00;77.30;;;;;;5092707;28;20043;-52
2023/07/15 14:13:21;;;;;;;9.63;3.70;;;39.40;74.60;;;;;;5092472;28;20648;-52
2023/07/15 14:16:25;;;;;;;6.43;3.58;;;39.20;75.30;;;;;;5093153;28;20225;-52
2023/07/15 14:19:29;;;;;;;7.78;3.63;;;39.10;75.90;;;;;;5092994;28;20046;-52
2023/07/15 14:22:32;;;;;;;9.25;3.88;;;39.30;75.80;;;;;;5092392;28;20047;-52
2023/07/15 14:25:36;;;;;;;8.43;3.50;;;39.30;76.60;;;;;;5092965;28;20047;-52
2023/07/15 14:28:40;;;;;;;7.57;3.45;;;39.40;76.10;;;;;;5092759;28;20031;-52
2023/07/15 14:31:44;;;;;;;7.32;3.60;;;38.60;77.40;;;;;;5091898;28;20043;-52
2023/07/15 14:34:48;;;;;;;8.45;3.67;;;38.20;78.30;;;;;;5092799;28;20051;-55
2023/07/15 14:37:52;;;;;;;9.27;3.90;;;37.60;77.00;;;;;;5092624;28;20403;-53
2023/07/15 14:40:57;;;;;;;5.55;3.40;;;37.20;77.30;;;;;;5092105;28;20043;-52
2023/07/15 14:44:01;;;;;;;13.85;3.85;;;37.50;78.50;;;;;;5092265;28;20437;-52
2023/07/15 14:47:05;;;;;;;6.63;3.42;;;37.80;78.50;;;;;;5092518;28;20039;-52
2023/07/15 14:50:09;;;;;;;10.02;4.18;;;37.40;78.90;;;;;;5092192;28;20047;-53
2023/07/15 14:53:13;;;;;;;12.27;3.75;;;36.40;80.00;;;;;;5092026;28;20051;-52
2023/07/15 14:56:17;;;;;;;6.07;3.70;;;35.70;82.10;;;;;;5092055;28;20060;-56
2023/07/15 14:59:21;;;;;;;12.48;4.38;;;36.00;80.00;;;;;;5091571;28;20064;-54
2023/07/15 15:02:25;;;;;;;11.73;4.13;;;35.90;81.60;;;;;;5091012;28;20406;-52
2023/07/15 15:05:29;;;;;;;9.10;4.20;;;36.20;81.60;;;;;;5091660;28;20039;-55
2023/07/15 15:08:33;;;;;;;9.55;4.03;;;35.50;81.10;;;;;;5091439;28;20197;-56
2023/07/15 15:11:38;;;;;;;7.47;3.97;;;35.90;79.70;;;;;;5091088;28;20047;-52
2023/07/15 15:14:42;;;;;;;7.68;3.92;;;35.60;79.00;;;;;;5091512;28;20051;-52
2023/07/15 15:17:46;;;;;;;9.95;4.10;;;35.80;80.50;;;;;;5091314;28;20051;-54
2023/07/15 15:20:50;;;;;;;14.45;4.60;;;35.60;80.30;;;;;;5091532;28;20059;-52
2023/07/15 15:23:54;;;;;;;11.23;4.15;;;36.00;80.50;;;;;;5091647;28;20039;-55
2023/07/15 15:26:59;;;;;;;11.23;4.68;;;36.40;80.40;;;;;;5091554;28;20042;-56
2023/07/15 15:30:03;;;;;;;9.90;4.35;;;36.20;80.40;;;;;;5091394;28;20043;-52
2023/07/15 15:33:07;;;;;;;8.00;4.10;;;36.20;80.50;;;;;;5090478;28;20071;-53
2023/07/15 15:36:11;;;;;;;8.60;4.10;;;36.10;81.50;;;;;;5091155;28;20047;-53
2023/07/15 15:39:15;;;;;;;7.93;4.07;;;36.10;80.30;;;;;;5091028;28;20051;-55
2023/07/15 15:42:19;;;;;;;8.90;4.30;;;35.70;81.30;;;;;;5090446;28;20055;-53
2023/07/15 15:45:23;;;;;;;10.10;4.43;;;35.80;82.90;;;;;;5090935;28;20043;-52
2023/07/15 15:48:27;;;;;;;11.60;4.57;;;35.50;84.20;;;;;;5090757;28;20051;-52
2023/07/15 15:51:31;;;;;;;9.23;3.95;;;35.60;85.50;;;;;;5090389;28;20087;-52